Time;durP1;ratioP1;P1;durP2;ratioP2;P2;SDS_P1;SDS_P2;PMS_P1;PMS_P2;Temp;Humidity;BMP_temperature;BMP_pressure;BME280_temperature;BME280_humidity;BME280_pressure;Samples;Min_cycle;Max_cycle;Signal;HPM_P1;HPM_P2
2022/12/18 00:01:37;;;;;;;61.13;20.65;;;;;;;-142.75;100.00;80306.22;4945859;28;20242;-68
2022/12/18 00:04:04;;;;;;;61.17;19.23;;;;;;;-142.75;100.00;80300.31;4943974;28;20152;-68
2022/12/18 00:06:30;;;;;;;63.20;20.47;;;;;;;-142.75;100.00;80310.16;4963262;28;20033;-68
2022/12/18 00:08:57;;;;;;;64.65;21.30;;;;;;;-142.75;100.00;80298.34;4945098;28;20383;-67
2022/12/18 00:11:25;;;;;;;65.77;20.77;;;;;;;-142.75;100.00;80282.59;4946521;28;20056;-68
2022/12/18 00:13:52;;;;;;;64.03;21.40;;;;;;;-142.75;100.00;80276.69;4945172;28;20851;-68
2022/12/18 00:16:20;;;;;;;78.33;24.00;;;;;;;-142.75;100.00;80274.72;4964599;28;20111;-68
2022/12/18 00:18:47;;;;;;;72.67;22.80;;;;;;;-142.75;100.00;80280.63;4963938;28;20025;-70
2022/12/18 00:21:14;;;;;;;71.37;21.50;;;;;;;-142.75;100.00;80276.69;4946870;28;20033;-69
2022/12/18 00:23:41;;;;;;;63.23;20.87;;;;;;;-142.75;100.00;80282.59;4945358;28;20187;-67
2022/12/18 00:26:30;;;;;;;87.37;22.23;;;;;;;-142.75;100.00;80294.41;4962536;28;20542;-67
2022/12/18 00:29:01;;;;;;;74.70;20.17;;;;;;;-142.75;100.00;80310.16;4959986;28;20566;-67
2022/12/18 00:31:27;;;;;;;59.03;20.30;;;;;;;-142.75;100.00;80304.25;4943974;28;20099;-68
2022/12/18 00:33:56;;;;;;;69.15;21.33;;;;;;;-142.75;100.00;80298.34;4961782;28;20336;-68
2022/12/18 00:36:30;;;;;;;69.47;21.47;;;;;;;-142.75;100.00;80304.25;4961735;28;20111;-68
2022/12/18 00:38:57;;;;;;;67.93;20.00;;;;;;;-142.75;100.00;80304.25;4940918;28;20038;-68
2022/12/18 00:44:10;;;;;;;61.13;21.73;;;;;;;-142.75;100.00;80298.34;4959350;28;20079;-68
2022/12/18 00:46:36;;;;;;;56.23;19.60;;;;;;;-142.75;100.00;80312.16;4945480;28;20546;-68
2022/12/18 00:49:02;;;;;;;73.57;21.33;;;;;;;-142.75;100.00;80308.19;4965384;28;20036;-68
2022/12/18 00:51:27;;;;;;;70.53;20.33;;;;;;;-142.75;100.00;80312.16;4965629;28;20330;-68
2022/12/18 00:53:54;;;;;;;69.67;20.30;;;;;;;-142.75;100.00;80320.03;4965277;28;20554;-70
2022/12/18 00:56:22;;;;;;;68.03;21.73;;;;;;;-142.75;100.00;80314.13;4947030;28;20129;-68
2022/12/18 00:58:48;;;;;;;75.20;21.53;;;;;;;-142.75;100.00;80306.22;4965076;28;20026;-68
2022/12/18 01:01:14;;;;;;;78.95;21.65;;;;;;;-142.75;100.00;80316.09;4965437;28;20386;-68
2022/12/18 01:03:39;;;;;;;;;;;;;;;-142.75;100.00;80300.31;4965583;28;20054;-68
2022/12/18 01:06:07;;;;;;;51.00;19.67;;;;;;;-142.75;100.00;80306.22;4965504;28;20080;-68
2022/12/18 01:08:33;;;;;;;62.17;21.00;;;;;;;-142.75;100.00;80298.34;4965717;28;20030;-68
2022/12/18 01:10:58;;;;;;;76.82;24.17;;;;;;;-142.75;100.00;80314.13;4966386;28;20462;-68
2022/12/18 01:13:24;;;;;;;67.57;23.02;;;;;;;-142.75;100.00;80316.09;4965767;28;20451;-68
2022/12/18 01:15:50;;;;;;;72.10;22.00;;;;;;;-142.75;100.00;80322.00;4947640;28;20059;-68
2022/12/18 01:18:16;;;;;;;70.17;22.13;;;;;;;-142.75;100.00;80325.94;4947364;28;20551;-68
2022/12/18 01:20:41;;;;;;;85.55;20.35;;;;;;;-142.75;100.00;80335.78;4965174;28;20128;-68
2022/12/18 01:23:07;;;;;;;100.75;21.30;;;;;;;-142.75;100.00;80355.50;4965049;28;20442;-68
2022/12/18 01:25:32;;;;;;;84.03;18.80;;;;;;;-142.75;100.00;80369.28;4947262;28;20026;-68
2022/12/18 01:27:58;;;;;;;89.22;19.52;;;;;;;-142.75;100.00;80383.06;4964839;28;20379;-68
2022/12/18 01:30:23;;;;;;;67.03;18.83;;;;;;;-142.75;100.00;80390.97;4965197;28;20029;-68
2022/12/18 01:32:49;;;;;;;65.97;18.05;;;;;;;-142.75;100.00;80385.03;4964621;28;20343;-68
2022/12/18 01:35:14;;;;;;;68.80;19.55;;;;;;;-142.75;100.00;80390.97;4964560;28;20092;-68
2022/12/18 01:37:40;;;;;;;67.57;18.73;;;;;;;-142.75;100.00;80406.72;4964650;28;20391;-68
2022/12/18 01:40:06;;;;;;;50.00;18.00;;;;;;;-142.75;100.00;80408.69;4946613;28;20037;-68
2022/12/18 01:42:32;;;;;;;50.17;18.33;;;;;;;-142.75;100.00;80410.66;4964553;28;20130;-68
2022/12/18 01:45:05;;;;;;;83.72;17.90;;;;;;;-142.75;100.00;80402.78;4946542;28;20199;-68
2022/12/18 01:47:43;;;;;;;58.23;17.13;;;;;;;-142.75;100.00;80410.66;4964576;28;20167;-68
2022/12/18 01:50:21;;;;;;;56.00;16.30;;;;;;;-142.75;100.00;80392.94;4946416;28;20052;-68
2022/12/18 01:52:51;;;;;;;63.00;18.80;;;;;;;-142.75;100.00;80402.78;4946555;28;20565;-68
2022/12/18 01:55:21;;;;;;;49.03;15.23;;;;;;;-142.75;100.00;80406.72;4964204;28;20136;-69
2022/12/18 01:57:48;;;;;;;54.90;17.77;;;;;;;-142.75;100.00;80408.69;4964169;28;20697;-68
2022/12/18 02:00:19;;;;;;;55.50;17.20;;;;;;;-142.75;100.00;80402.78;4970396;28;20022;-67
2022/12/18 02:02:48;;;;;;;62.87;18.50;;;;;;;-142.75;100.00;80412.63;4964480;28;20025;-67
2022/12/18 02:06:06;;;;;;;60.30;16.43;;;;;;;-142.75;100.00;80410.66;4964583;28;20033;-68
2022/12/18 02:08:50;;;;;;;44.72;16.25;;;;;;;-142.75;100.00;80426.41;4949624;28;20060;-67
2022/12/18 02:11:31;;;;;;;48.23;16.13;;;;;;;-142.75;100.00;80424.44;4964040;28;20033;-68
2022/12/18 02:14:21;;;;;;;49.90;16.77;;;;;;;-142.75;100.00;80442.19;4945953;28;20636;-66
2022/12/18 02:17:06;;;;;;;52.37;15.70;;;;;;;-142.75;100.00;80444.16;4943994;28;20875;-66
2022/12/18 02:19:59;;;;;;;49.83;17.47;;;;;;;-142.75;100.00;80448.09;4945975;28;20147;-70
2022/12/18 02:22:39;;;;;;;48.30;18.50;;;;;;;-142.75;100.00;80442.19;4946167;28;20171;-67
2022/12/18 02:25:35;;;;;;;54.73;18.50;;;;;;;-142.75;100.00;80424.44;4963503;28;20558;-67
2022/12/18 02:28:04;;;;;;;54.17;17.00;;;;;;;-142.75;100.00;80426.41;4959448;28;20530;-69
2022/12/18 02:30:33;;;;;;;67.70;17.80;;;;;;;-142.75;100.00;80430.38;4945628;28;20022;-68
2022/12/18 02:33:01;;;;;;;49.67;17.10;;;;;;;-142.75;100.00;80418.53;4963359;28;20091;-67
2022/12/18 02:35:30;;;;;;;62.97;19.03;;;;;;;-142.75;100.00;80414.59;4951637;28;20022;-67
2022/12/18 02:37:56;;;;;;;58.97;17.57;;;;;;;-142.75;100.00;80426.41;4945860;28;20138;-70
2022/12/18 02:40:24;;;;;;;61.83;18.20;;;;;;;-142.75;100.00;80432.34;4946062;28;20029;-67
2022/12/18 02:42:50;;;;;;;68.10;17.30;;;;;;;-142.75;100.00;80432.34;4963832;28;20044;-68
2022/12/18 02:45:16;;;;;;;70.13;15.25;;;;;;;-142.75;100.00;80442.19;4963652;28;20559;-68
2022/12/18 02:47:45;;;;;;;63.97;18.43;;;;;;;-142.75;100.00;80438.25;4946064;28;20029;-67
2022/12/18 02:50:30;;;;;;;72.33;17.60;;;;;;;-142.75;100.00;80438.25;4964146;28;20152;-68
2022/12/18 02:53:16;;;;;;;64.77;17.53;;;;;;;-142.75;100.00;80418.53;4946511;28;20059;-68
2022/12/18 02:56:07;;;;;;;72.43;15.80;;;;;;;-142.75;100.00;80442.19;4960694;28;20630;-68
2022/12/18 02:58:59;;;;;;;58.40;17.33;;;;;;;-142.75;100.00;80430.38;4962993;28;20399;-68
2022/12/18 03:01:42;;;;;;;68.07;17.07;;;;;;;-142.75;100.00;80426.41;4946557;28;20013;-68
2022/12/18 03:04:39;;;;;;;46.63;16.93;;;;;;;-142.75;100.00;80442.19;4964887;28;20034;-68
2022/12/18 03:07:12;;;;;;;41.03;14.00;;;;;;;-142.75;100.00;80440.22;4963384;28;20025;-68
2022/12/18 03:09:43;;;;;;;61.83;17.50;;;;;;;-142.75;100.00;80428.38;4963250;28;20809;-67
2022/12/18 03:12:32;;;;;;;58.67;18.57;;;;;;;-142.75;100.00;80436.28;4963851;28;20550;-68
2022/12/18 03:15:12;;;;;;;64.00;17.47;;;;;;;-142.75;100.00;80434.31;4945449;28;20022;-69
2022/12/18 03:17:44;;;;;;;47.13;16.77;;;;;;;-142.75;100.00;80422.47;4963615;28;20025;-68
2022/12/18 03:20:14;;;;;;;52.10;18.30;;;;;;;-142.75;100.00;80422.47;4963533;28;20037;-68
2022/12/18 03:22:42;;;;;;;47.80;16.83;;;;;;;-142.75;100.00;80434.31;4963487;28;20026;-68
2022/12/18 03:25:12;;;;;;;47.47;17.20;;;;;;;-142.75;100.00;80440.22;4965131;28;20033;-68
2022/12/18 03:27:44;;;;;;;51.47;16.67;;;;;;;-142.75;100.00;80452.03;4960029;28;20673;-67
2022/12/18 03:30:12;;;;;;;61.47;15.77;;;;;;;-142.75;100.00;80432.34;4946119;28;20195;-67
2022/12/18 03:32:52;;;;;;;61.23;18.73;;;;;;;-142.75;100.00;80434.31;4964034;28;20025;-68
2022/12/18 03:35:22;;;;;;;52.47;15.27;;;;;;;-142.75;100.00;80459.91;4963385;28;20040;-68
2022/12/18 03:37:48;;;;;;;51.30;17.37;;;;;;;-142.75;100.00;80446.13;4963389;28;20840;-66
2022/12/18 03:40:14;;;;;;;;;;;;;;;-142.75;100.00;80448.09;4964070;28;20562;-67
2022/12/18 03:42:54;;;;;;;41.37;14.67;;;;;;;-142.75;100.00;80434.31;4962877;28;19923;-68
2022/12/18 03:45:41;;;;;;;31.93;13.13;;;;;;;-142.75;100.00;80418.53;4963007;28;20030;-67
2022/12/18 03:48:19;;;;;;;56.85;15.38;;;;;;;-142.75;100.00;80434.31;4945833;28;20558;-68
2022/12/18 03:51:05;;;;;;;32.00;13.63;;;;;;;-142.75;100.00;80430.38;4945877;28;20095;-68
2022/12/18 03:53:47;;;;;;;40.13;15.60;;;;;;;-142.75;100.00;80430.38;4958475;28;20617;-67
2022/12/18 03:56:14;;;;;;;38.67;15.60;;;;;;;-142.75;100.00;80402.78;4963306;28;20551;-68
2022/12/18 03:58:42;;;;;;;45.90;16.00;;;;;;;-142.75;100.00;80414.59;4962883;28;20059;-68
2022/12/18 04:01:12;;;;;;;42.20;16.53;;;;;;;-142.75;100.00;80418.53;4962843;28;20022;-68
2022/12/18 04:03:38;;;;;;;37.53;15.97;;;;;;;-142.75;100.00;80408.69;4945420;28;20554;-68
2022/12/18 04:06:05;;;;;;;41.38;16.30;;;;;;;-142.75;100.00;80392.94;4945266;28;20064;-68
2022/12/18 04:08:31;;;;;;;42.10;17.20;;;;;;;-142.75;100.00;80387.00;4962774;28;20554;-67
2022/12/18 04:10:56;;;;;;;41.50;16.43;;;;;;;-142.75;100.00;80410.66;4960132;28;20032;-68
2022/12/18 04:13:27;;;;;;;45.30;16.63;;;;;;;-142.75;100.00;80394.91;4944932;28;20060;-68
2022/12/18 04:15:52;;;;;;;36.97;14.57;;;;;;;-142.75;100.00;80398.84;4961830;28;20026;-68
2022/12/18 04:18:18;;;;;;;39.92;16.05;;;;;;;-142.75;100.00;80436.28;4944974;28;20199;-68
2022/12/18 04:20:43;;;;;;;39.72;14.43;;;;;;;-142.75;100.00;80424.44;4962781;28;20025;-68
2022/12/18 04:23:09;;;;;;;41.50;15.07;;;;;;;-142.75;100.00;80422.47;4963442;28;20029;-69
2022/12/18 04:25:34;;;;;;;38.15;14.02;;;;;;;-142.75;100.00;80428.38;4962613;28;20184;-68
2022/12/18 04:28:00;;;;;;;39.08;14.25;;;;;;;-142.75;100.00;80430.38;4963040;28;20286;-68
2022/12/18 04:30:25;;;;;;;32.42;13.23;;;;;;;-142.75;100.00;80432.34;4962325;28;20283;-69
2022/12/18 04:32:51;;;;;;;36.58;14.13;;;;;;;-142.75;100.00;80446.13;4952650;28;20356;-68
2022/12/18 04:35:16;;;;;;;36.20;14.88;;;;;;;-142.75;100.00;80461.88;4944943;28;20359;-69
2022/12/18 04:37:42;;;;;;;31.05;12.95;;;;;;;-142.75;100.00;80442.19;4962307;28;20324;-68
2022/12/18 04:40:08;;;;;;;34.22;14.50;;;;;;;-142.75;100.00;80420.50;4962417;28;20391;-69
2022/12/18 04:42:33;;;;;;;;;;;;;;;-142.75;100.00;80434.31;4945084;28;20052;-69
2022/12/18 04:44:59;;;;;;;34.20;14.23;;;;;;;-142.75;100.00;80444.16;4944450;28;20279;-69
2022/12/18 04:47:24;;;;;;;33.55;13.07;;;;;;;-142.75;100.00;80457.94;4962343;28;20343;-69
2022/12/18 04:49:50;;;;;;;43.05;15.07;;;;;;;-142.75;100.00;80448.09;4962221;28;20328;-68
2022/12/18 04:52:16;;;;;;;36.47;14.35;;;;;;;-142.75;100.00;80446.13;4944682;28;20101;-69
2022/12/18 04:54:41;;;;;;;38.95;14.57;;;;;;;-142.75;100.00;80444.16;4944671;28;20301;-69
2022/12/18 04:57:07;;;;;;;32.78;13.70;;;;;;;-142.75;100.00;80416.56;4961811;28;20297;-69
2022/12/18 04:59:32;;;;;;;35.40;14.98;;;;;;;-142.75;100.00;80418.53;4962178;28;20325;-68
2022/12/18 05:01:58;;;;;;;43.78;15.40;;;;;;;-142.75;100.00;80398.84;4962177;28;20438;-69
2022/12/18 05:04:23;;;;;;;37.55;14.70;;;;;;;-142.75;100.00;80390.97;4962214;28;20463;-67
2022/12/18 05:06:49;;;;;;;37.70;14.85;;;;;;;-142.75;100.00;80387.00;4962185;28;20056;-68
2022/12/18 05:09:14;;;;;;;40.25;15.57;;;;;;;-142.75;100.00;80383.06;4962528;28;20059;-68
2022/12/18 05:11:40;;;;;;;32.50;14.35;;;;;;;-142.75;100.00;80408.69;4944027;28;20336;-69
2022/12/18 05:14:05;;;;;;;35.70;13.57;;;;;;;-142.75;100.00;80406.72;4961519;28;20378;-68
2022/12/18 05:16:31;;;;;;;34.53;13.93;;;;;;;-142.75;100.00;80410.66;4961384;28;20523;-69
2022/12/18 05:18:56;;;;;;;36.05;14.20;;;;;;;-142.75;100.00;80375.19;4961761;28;20191;-69
2022/12/18 05:21:22;;;;;;;34.65;15.52;;;;;;;-142.75;100.00;80373.22;4961742;28;20328;-69
2022/12/18 05:23:47;;;;;;;36.00;14.02;;;;;;;-142.75;100.00;80367.31;4943673;28;20316;-68
2022/12/18 05:26:18;;;;;;;33.20;14.32;;;;;;;-142.75;100.00;80371.25;4961556;28;20363;-68
2022/12/18 05:28:44;;;;;;;33.87;13.97;;;;;;;-142.75;100.00;80379.13;4961434;28;20568;-67
2022/12/18 05:31:09;;;;;;;33.50;13.43;;;;;;;-142.75;100.00;80371.25;4961898;28;20037;-69
2022/12/18 05:33:35;;;;;;;31.80;13.70;;;;;;;-142.75;100.00;80363.38;4965467;28;20356;-69
2022/12/18 05:36:02;;;;;;;35.33;14.50;;;;;;;-142.75;100.00;80373.22;4965199;28;20478;-68
2022/12/18 05:38:29;;;;;;;35.93;14.40;;;;;;;-142.75;100.00;80406.72;4946843;28;20021;-69
2022/12/18 05:40:55;;;;;;;37.70;14.67;;;;;;;-142.75;100.00;80390.97;4965557;28;20657;-68
2022/12/18 05:43:22;;;;;;;33.97;14.05;;;;;;;-142.75;100.00;80410.66;4965608;28;20088;-69
2022/12/18 05:45:48;;;;;;;31.47;12.73;;;;;;;-142.75;100.00;80418.53;4947431;28;20029;-69
2022/12/18 05:48:15;;;;;;;31.30;13.20;;;;;;;-142.75;100.00;80416.56;4948384;28;20060;-70
2022/12/18 05:50:43;;;;;;;35.17;14.53;;;;;;;-142.75;100.00;80410.66;4947303;28;20589;-67
2022/12/18 05:53:09;;;;;;;33.93;14.07;;;;;;;-142.75;100.00;80422.47;4947704;28;20033;-69
2022/12/18 05:55:37;;;;;;;34.45;13.10;;;;;;;-142.75;100.00;80430.38;4965545;28;20323;-69
2022/12/18 05:58:04;;;;;;;34.20;13.93;;;;;;;-142.75;100.00;80448.09;4964784;28;20029;-69
2022/12/18 06:00:31;;;;;;;26.87;12.23;;;;;;;-142.75;100.00;80444.16;4947373;28;20114;-69
2022/12/18 06:02:57;;;;;;;34.63;12.33;;;;;;;-142.75;100.00;80454.00;4960929;28;20084;-69
2022/12/18 06:05:23;;;;;;;;;;;;;;;-142.75;100.00;80455.97;4948265;28;20144;-69
2022/12/18 06:07:48;;;;;;;26.30;11.70;;;;;;;-142.75;100.00;80469.78;4965111;28;20197;-68
2022/12/18 06:10:14;;;;;;;30.83;11.93;;;;;;;-142.75;100.00;80481.59;4965100;28;20041;-68
2022/12/18 06:12:39;;;;;;;29.17;12.27;;;;;;;-142.75;100.00;80477.66;4964897;28;20025;-69
2022/12/18 06:15:05;;;;;;;29.52;11.98;;;;;;;-142.75;100.00;80493.41;4964451;28;20336;-69
2022/12/18 06:17:32;;;;;;;25.05;10.98;;;;;;;-142.75;100.00;80485.53;4964493;28;20157;-67
2022/12/18 06:19:58;;;;;;;32.00;12.00;;;;;;;-142.75;100.00;80481.59;4964350;28;20035;-68
2022/12/18 06:22:23;;;;;;;28.35;11.55;;;;;;;-142.75;100.00;80475.69;4946370;28;20025;-69
2022/12/18 06:24:49;;;;;;;25.13;11.38;;;;;;;-142.75;100.00;80481.59;4946256;28;20227;-69
2022/12/18 06:27:15;;;;;;;28.30;11.10;;;;;;;-142.75;100.00;80485.53;4963613;28;20419;-70
2022/12/18 06:29:40;;;;;;;26.45;10.82;;;;;;;-142.75;100.00;80495.38;4963841;28;20328;-69
2022/12/18 06:32:06;;;;;;;23.77;10.77;;;;;;;-142.75;100.00;80487.50;4963765;28;20433;-69
2022/12/18 06:34:32;;;;;;;21.83;10.93;;;;;;;-142.75;100.00;80475.69;4963451;28;20305;-69
2022/12/18 06:36:58;;;;;;;27.13;11.03;;;;;;;-142.75;100.00;80499.31;4945688;28;20574;-67
2022/12/18 06:39:26;;;;;;;24.27;10.23;;;;;;;-142.75;100.00;80524.94;4963585;28;20195;-69
2022/12/18 06:41:52;;;;;;;23.77;10.73;;;;;;;-142.75;100.00;80519.03;4963445;28;20036;-68
2022/12/18 06:44:17;;;;;;;;;;;;;;;-142.75;100.00;80511.16;4946122;28;20021;-69
2022/12/18 06:46:43;;;;;;;21.93;9.00;;;;;;;-142.75;100.00;80522.97;4945894;28;20230;-70
2022/12/18 06:49:09;;;;;;;25.20;10.77;;;;;;;-142.75;100.00;80528.88;4963224;28;20316;-69
2022/12/18 06:51:35;;;;;;;26.48;10.68;;;;;;;-142.75;100.00;80524.94;4963385;28;20044;-69
2022/12/18 06:54:00;;;;;;;23.30;10.50;;;;;;;-142.75;100.00;80521.00;4963790;28;20410;-68
2022/12/18 06:56:26;;;;;;;22.83;10.80;;;;;;;-142.75;100.00;80495.38;4945641;28;20014;-67
2022/12/18 06:58:52;;;;;;;27.75;9.70;;;;;;;-142.75;100.00;80505.25;4945527;28;20091;-69
2022/12/18 07:01:18;;;;;;;20.00;10.00;;;;;;;-142.75;100.00;80509.19;4963858;28;20298;-68
2022/12/18 07:03:43;;;;;;;22.60;10.20;;;;;;;-142.75;100.00;80495.38;4963917;28;20029;-70
2022/12/18 07:06:17;;;;;;;21.55;9.80;;;;;;;-142.75;100.00;80491.44;4946167;28;20436;-69
2022/12/18 07:08:44;;;;;;;23.53;11.00;;;;;;;-142.75;100.00;80493.41;4945701;28;20021;-69
2022/12/18 07:11:09;;;;;;;27.17;11.63;;;;;;;-142.75;100.00;80497.34;4962917;28;20052;-69
2022/12/18 07:13:35;;;;;;;;;;;;;;;-142.75;100.00;80497.34;4964026;28;20189;-69
2022/12/18 07:16:09;;;;;;;25.57;9.83;;;;;;;-142.75;100.00;80499.31;4945423;28;20194;-70
2022/12/18 07:18:35;;;;;;;25.40;10.30;;;;;;;-142.75;100.00;80505.25;4963255;28;20029;-69
2022/12/18 07:21:04;;;;;;;;;;;;;;;-142.75;100.00;80497.34;4946028;28;20375;-70
2022/12/18 07:23:31;;;;;;;20.20;9.87;;;;;;;-142.75;100.00;80469.78;4944897;28;20656;-68
2022/12/18 07:26:01;;;;;;;21.30;9.90;;;;;;;-142.75;100.00;80457.94;4945008;28;20033;-69
2022/12/18 07:28:27;;;;;;;21.83;9.73;;;;;;;-142.75;100.00;80448.09;4962359;28;20029;-69
2022/12/18 07:30:52;;;;;;;;;;;;;;;-142.75;100.00;80446.13;4962893;28;20395;-69
2022/12/18 07:33:18;;;;;;;21.23;10.30;;;;;;;-142.75;100.00;80446.13;4962728;28;20223;-68
2022/12/18 07:35:43;;;;;;;21.85;9.95;;;;;;;-142.75;100.00;80426.41;4962468;28;20028;-69
2022/12/18 07:38:09;;;;;;;21.00;9.00;;;;;;;-142.75;100.00;80452.03;4962031;28;20360;-70
2022/12/18 07:40:34;;;;;;;21.50;10.80;;;;;;;-142.75;100.00;80438.25;4962416;28;20348;-69
2022/12/18 07:43:00;;;;;;;21.30;9.07;;;;;;;-142.75;100.00;80457.94;4944955;28;20356;-69
2022/12/18 07:45:25;;;;;;;;;;;;;;;-142.75;100.00;80467.81;4963031;28;20344;-69
2022/12/18 07:47:51;;;;;;;16.73;8.77;;;;;;;-142.75;100.00;80469.78;4962287;28;20245;-69
2022/12/18 07:50:16;;;;;;;;;;;;;;;-142.75;100.00;80461.88;4962842;28;20515;-69
2022/12/18 07:52:41;;;;;;;21.20;8.97;;;;;;;-142.75;100.00;80448.09;4964060;28;20212;-68
2022/12/18 07:55:07;;;;;;;;;;;;;;;-142.75;100.00;80436.28;4962214;28;20356;-72
2022/12/18 07:57:32;;;;;;;15.87;8.57;;;;;;;-142.75;100.00;80440.22;4944357;28;20251;-68
2022/12/18 07:59:58;;;;;;;23.02;9.98;;;;;;;-142.75;100.00;80428.38;4967932;28;20021;-70
2022/12/18 08:02:24;;;;;;;18.92;9.77;;;;;;;-142.75;100.00;80424.44;4944392;28;20367;-69
2022/12/18 08:04:49;;;;;;;17.30;7.95;;;;;;;-142.75;100.00;80422.47;4944049;28;20391;-70
2022/12/18 08:07:15;;;;;;;19.80;9.02;;;;;;;-142.75;100.00;80418.53;4962473;28;20534;-70
2022/12/18 08:09:40;;;;;;;24.08;10.45;;;;;;;-142.75;100.00;80406.72;4959039;28;20324;-69
2022/12/18 08:12:06;;;;;;;24.95;10.10;;;;;;;-142.75;100.00;80416.56;4963620;28;20338;-71
2022/12/18 08:14:31;;;;;;;21.27;9.27;;;;;;;-142.75;100.00;80416.56;4963214;28;20333;-70
2022/12/18 08:16:57;;;;;;;23.40;10.00;;;;;;;-142.75;100.00;80396.88;4963014;28;20313;-70
2022/12/18 08:19:22;;;;;;;;;;;;;;;-142.75;100.00;80385.03;4962075;28;20017;-70
2022/12/18 08:21:48;;;;;;;15.87;7.73;;;;;;;-142.75;100.00;80387.00;4944196;28;20279;-71
2022/12/18 08:24:14;;;;;;;18.77;8.67;;;;;;;-142.75;100.00;80379.13;4943659;28;20463;-70
2022/12/18 08:26:39;;;;;;;20.40;9.40;;;;;;;-142.75;100.00;80367.31;4961944;28;20341;-72
2022/12/18 08:29:05;;;;;;;24.02;12.15;;;;;;;-142.75;100.00;80347.59;4944347;28;20386;-73
2022/12/18 08:31:30;;;;;;;23.90;10.65;;;;;;;-142.75;100.00;80343.66;4962319;28;20356;-70
2022/12/18 08:33:57;;;;;;;20.38;9.10;;;;;;;-142.75;100.00;80333.81;4943827;28;20360;-70
2022/12/18 08:36:23;;;;;;;20.60;10.23;;;;;;;-142.75;100.00;80341.69;4962046;28;20018;-71
2022/12/18 08:38:49;;;;;;;25.20;10.50;;;;;;;-142.75;100.00;80339.72;4943926;28;20039;-70
2022/12/18 08:41:16;;;;;;;25.15;10.23;;;;;;;-142.75;100.00;80349.56;4944320;28;20288;-68
2022/12/18 08:46:30;;;;;;;19.20;8.80;;;;;;;-142.75;100.00;80361.41;4951839;28;20518;-70
2022/12/18 08:48:56;;;;;;;21.90;9.20;;;;;;;-142.75;100.00;80355.50;4944477;28;20017;-70
2022/12/18 08:51:22;;;;;;;22.02;9.90;;;;;;;-142.75;100.00;80357.47;4962200;28;20324;-71
2022/12/18 08:53:47;;;;;;;18.98;8.93;;;;;;;-142.75;100.00;80343.66;4943917;28;20243;-70
2022/12/18 08:56:14;;;;;;;20.63;9.50;;;;;;;-142.75;100.00;80359.44;4961804;28;20242;-71
2022/12/18 08:58:39;;;;;;;19.33;8.73;;;;;;;-142.75;100.00;80365.34;4943616;28;20034;-70
2022/12/18 09:01:09;;;;;;;15.43;7.75;;;;;;;-142.75;100.00;80375.19;4944504;28;20343;-71
2022/12/18 09:03:35;;;;;;;17.23;8.17;;;;;;;-142.75;100.00;80371.25;4961976;28;20549;-69
2022/12/18 09:06:00;;;;;;;;;;;;;;;-142.75;100.00;80371.25;4962775;28;20026;-70
2022/12/18 09:08:26;;;;;;;18.37;8.07;;;;;;;-142.75;100.00;80363.38;4964555;28;20361;-69
2022/12/18 09:10:52;;;;;;;17.88;8.82;;;;;;;-142.75;100.00;80343.66;4947362;28;20052;-71
2022/12/18 09:13:18;;;;;;;20.50;10.05;;;;;;;-142.75;100.00;80335.78;4947447;28;20324;-69
2022/12/18 09:15:52;;;;;;;15.80;8.87;;;;;;;-142.75;100.00;80333.81;4965465;28;20022;-70
2022/12/18 09:18:20;;;;;;;16.93;8.53;;;;;;;-142.75;100.00;80327.91;4965032;28;20033;-70
2022/12/18 09:20:46;;;;;;;17.60;8.77;;;;;;;-142.75;100.00;80316.09;4965203;28;20608;-69
2022/12/18 09:23:12;;;;;;;21.40;9.02;;;;;;;-142.75;100.00;80316.09;4965888;28;20029;-67
2022/12/18 09:25:38;;;;;;;20.53;10.57;;;;;;;-142.75;100.00;80282.59;4969835;28;20053;-74
2022/12/18 09:28:05;;;;;;;;;;;;;;;-142.75;100.00;80260.91;4965959;28;20160;-74
2022/12/18 09:30:33;;;;;;;14.30;6.68;;;;;;;-142.75;100.00;80260.91;4966447;28;20018;-73
2022/12/18 09:32:58;;;;;;;19.50;9.53;;;;;;;-142.75;100.00;80308.19;4965554;28;20033;-73
2022/12/18 09:35:24;;;;;;;25.58;9.65;;;;;;;-142.75;100.00;80302.28;4965918;28;20115;-71
2022/12/18 09:37:50;;;;;;;20.83;8.60;;;;;;;-142.75;100.00;80288.50;4948348;28;20025;-73
2022/12/18 09:40:21;;;;;;;20.52;8.70;;;;;;;-142.75;100.00;80253.03;4965320;28;20572;-74
2022/12/18 09:42:55;;;;;;;22.50;9.83;;;;;;;-142.75;100.00;80253.03;4947623;28;20535;-72
2022/12/18 09:45:21;;;;;;;18.33;9.13;;;;;;;-142.75;100.00;80256.97;4965654;28;20061;-73
2022/12/18 09:47:49;;;;;;;20.88;10.00;;;;;;;-142.75;100.00;80258.94;4947129;28;20305;-73
2022/12/18 09:50:31;;;;;;;16.00;9.20;;;;;;;-142.75;100.00;80256.97;4951034;28;20025;-73
2022/12/18 09:53:03;;;;;;;19.40;9.87;;;;;;;-142.75;100.00;80249.09;4964973;28;20128;-73
2022/12/18 09:55:38;;;;;;;23.50;10.40;;;;;;;-142.75;100.00;80241.22;4946804;28;20030;-73
2022/12/18 09:58:24;;;;;;;18.77;8.97;;;;;;;-142.75;100.00;80249.09;4964514;28;20635;-72
2022/12/18 10:00:53;;;;;;;19.17;8.70;;;;;;;-142.75;100.00;80243.19;4946883;28;20582;-72
2022/12/18 10:03:18;;;;;;;21.77;9.13;;;;;;;-142.75;100.00;80217.56;4964692;28;20029;-73
2022/12/18 10:06:14;;;;;;;21.35;9.68;;;;;;;-142.75;100.00;80203.78;4964190;28;20296;-73
2022/12/18 10:08:59;;;;;;;16.00;8.50;;;;;;;-142.75;100.00;80205.75;4950239;28;20021;-73
2022/12/18 10:11:39;;;;;;;21.23;10.07;;;;;;;-142.75;100.00;80211.66;4965055;28;20048;-74
2022/12/18 10:14:24;;;;;;;21.33;9.67;;;;;;;-142.75;100.00;80213.63;4947445;28;20033;-74
2022/12/18 10:17:03;;;;;;;19.77;10.37;;;;;;;-142.75;100.00;80203.78;4964639;28;20033;-73
2022/12/18 10:19:49;;;;;;;23.27;9.80;;;;;;;-142.75;100.00;80182.09;4946089;28;20026;-73
2022/12/18 10:22:26;;;;;;;17.37;9.27;;;;;;;-142.75;100.00;80168.31;4947517;28;20115;-73
2022/12/18 10:25:18;;;;;;;21.63;10.33;;;;;;;-142.75;100.00;80148.59;4962066;28;20030;-74
2022/12/18 10:27:44;;;;;;;21.47;9.53;;;;;;;-142.75;100.00;80148.59;4937828;28;20036;-73
2022/12/18 10:30:15;;;;;;;19.52;8.93;;;;;;;-142.75;100.00;80148.59;4964200;28;20314;-74
2022/12/18 10:32:41;;;;;;;26.13;10.30;;;;;;;-142.75;100.00;80128.91;4964131;28;20554;-73
2022/12/18 10:35:19;;;;;;;20.02;10.13;;;;;;;-142.75;100.00;80115.13;4964368;28;20032;-72
2022/12/18 10:38:06;;;;;;;20.30;9.47;;;;;;;-142.75;100.00;80121.03;4953404;28;20554;-71
2022/12/18 10:40:47;;;;;;;19.60;9.53;;;;;;;-142.75;100.00;80138.75;4943717;28;20030;-74
2022/12/18 10:43:14;;;;;;;20.63;8.83;;;;;;;-142.75;100.00;80134.81;4966254;28;20136;-73
2022/12/18 10:45:41;;;;;;;18.37;9.57;;;;;;;-142.75;100.00;80123.00;4962790;28;20079;-73
2022/12/18 10:48:21;;;;;;;18.50;9.03;;;;;;;-142.75;100.00;80103.28;4965407;28;20557;-72
2022/12/18 10:50:49;;;;;;;21.47;10.10;;;;;;;-142.75;100.00;80091.47;4965772;28;20048;-74
2022/12/18 10:53:22;;;;;;;21.80;9.90;;;;;;;-142.75;100.00;80095.41;4965987;28;20140;-72
2022/12/18 10:55:48;;;;;;;19.77;9.27;;;;;;;-142.75;100.00;80085.56;4946410;28;20772;-72
2022/12/18 10:58:23;;;;;;;17.00;9.38;;;;;;;-142.75;100.00;80056.00;4964115;28;20033;-74
2022/12/18 11:01:06;;;;;;;16.73;8.87;;;;;;;-142.75;100.00;80048.13;4948699;28;20620;-72
2022/12/18 11:03:54;;;;;;;18.17;9.87;;;;;;;-142.75;100.00;80059.94;4944465;28;20029;-73
2022/12/18 11:06:24;;;;;;;19.20;10.03;;;;;;;-142.75;100.00;80040.25;4965034;28;20538;-70
2022/12/18 11:09:05;;;;;;;24.23;10.43;;;;;;;-142.75;100.00;80059.94;4964764;28;20026;-73
2022/12/18 11:11:32;;;;;;;20.43;10.03;;;;;;;-142.75;100.00;80046.16;4966159;28;20052;-73
2022/12/18 11:14:19;;;;;;;17.73;9.73;;;;;;;-142.75;100.00;80042.22;4964848;28;20025;-73
2022/12/18 11:16:47;;;;;;;23.77;9.53;;;;;;;-142.75;100.00;80028.44;4961422;28;20022;-73